sensor_id;sensor_type;location;lat;lon;timestamp;P1;durP1;ratioP1;P2;durP2;ratioP2
40629;SDS011;26329;40.388;-3.710;2023-04-07T00:03:59;2.55;;;0.20;;
40629;SDS011;26329;40.388;-3.710;2023-04-07T00:14:01;3.33;;;0.25;;
40629;SDS011;26329;40.388;-3.710;2023-04-07T00:24:03;3.17;;;0.10;;
40629;SDS011;26329;40.388;-3.710;2023-04-07T00:34:04;2.00;;;0.10;;
40629;SDS011;26329;40.388;-3.710;2023-04-07T00:44:06;3.50;;;0.10;;
40629;SDS011;26329;40.388;-3.710;2023-04-07T00:54:08;1.00;;;0.10;;
40629;SDS011;26329;40.388;-3.710;2023-04-07T01:15:13;1.05;;;0.00;;
40629;SDS011;26329;40.388;-3.710;2023-04-07T01:35:38;1.90;;;0.13;;
40629;SDS011;26329;40.388;-3.710;2023-04-07T01:45:41;3.27;;;0.10;;
40629;SDS011;26329;40.388;-3.710;2023-04-07T01:55:43;1.02;;;0.10;;
40629;SDS011;26329;40.388;-3.710;2023-04-07T02:05:46;0.30;;;0.00;;
40629;SDS011;26329;40.388;-3.710;2023-04-07T02:15:49;1.65;;;0.10;;
40629;SDS011;26329;40.388;-3.710;2023-04-07T02:25:55;2.80;;;0.10;;
40629;SDS011;26329;40.388;-3.710;2023-04-07T02:35:57;3.05;;;0.10;;
40629;SDS011;26329;40.388;-3.710;2023-04-07T02:45:58;3.25;;;0.10;;
40629;SDS011;26329;40.388;-3.710;2023-04-07T02:56:00;0.85;;;0.10;;
40629;SDS011;26329;40.388;-3.710;2023-04-07T03:06:01;0.75;;;0.10;;
40629;SDS011;26329;40.388;-3.710;2023-04-07T03:16:02;5.00;;;0.10;;
40629;SDS011;26329;40.388;-3.710;2023-04-07T03:26:03;0.40;;;0.10;;
40629;SDS011;26329;40.388;-3.710;2023-04-07T03:36:05;0.77;;;0.10;;
40629;SDS011;26329;40.388;-3.710;2023-04-07T03:46:07;2.67;;;0.10;;
40629;SDS011;26329;40.388;-3.710;2023-04-07T03:56:08;0.93;;;0.10;;
40629;SDS011;26329;40.388;-3.710;2023-04-07T04:06:09;1.80;;;0.10;;
40629;SDS011;26329;40.388;-3.710;2023-04-07T04:16:11;1.92;;;0.20;;
40629;SDS011;26329;40.388;-3.710;2023-04-07T04:26:12;1.80;;;0.20;;
40629;SDS011;26329;40.388;-3.710;2023-04-07T04:36:13;0.47;;;0.10;;
40629;SDS011;26329;40.388;-3.710;2023-04-07T04:46:15;0.73;;;0.10;;
40629;SDS011;26329;40.388;-3.710;2023-04-07T04:56:17;2.80;;;0.22;;
40629;SDS011;26329;40.388;-3.710;2023-04-07T05:06:18;6.15;;;0.47;;
40629;SDS011;26329;40.388;-3.710;2023-04-07T05:16:19;1.40;;;0.10;;
40629;SDS011;26329;40.388;-3.710;2023-04-07T05:26:20;1.40;;;0.20;;
40629;SDS011;26329;40.388;-3.710;2023-04-07T05:36:22;6.50;;;0.20;;
40629;SDS011;26329;40.388;-3.710;2023-04-07T05:46:23;3.05;;;0.20;;
40629;SDS011;26329;40.388;-3.710;2023-04-07T05:56:24;4.13;;;0.10;;
40629;SDS011;26329;40.388;-3.710;2023-04-07T06:06:26;1.75;;;0.10;;
40629;SDS011;26329;40.388;-3.710;2023-04-07T06:16:28;2.15;;;0.10;;
40629;SDS011;26329;40.388;-3.710;2023-04-07T06:26:29;3.40;;;0.20;;
40629;SDS011;26329;40.388;-3.710;2023-04-07T06:36:31;3.67;;;0.22;;
40629;SDS011;26329;40.388;-3.710;2023-04-07T06:46:33;3.42;;;0.68;;
40629;SDS011;26329;40.388;-3.710;2023-04-07T06:56:34;1.45;;;0.20;;
40629;SDS011;26329;40.388;-3.710;2023-04-07T07:06:36;2.13;;;0.28;;
40629;SDS011;26329;40.388;-3.710;2023-04-07T07:16:37;2.25;;;0.20;;
40629;SDS011;26329;40.388;-3.710;2023-04-07T07:26:39;4.50;;;0.38;;
40629;SDS011;26329;40.388;-3.710;2023-04-07T07:36:41;1.35;;;0.38;;
40629;SDS011;26329;40.388;-3.710;2023-04-07T07:46:42;3.47;;;0.50;;
40629;SDS011;26329;40.388;-3.710;2023-04-07T07:56:43;1.73;;;0.20;;
40629;SDS011;26329;40.388;-3.710;2023-04-07T08:06:44;6.63;;;0.50;;
40629;SDS011;26329;40.388;-3.710;2023-04-07T08:16:46;2.15;;;0.35;;
40629;SDS011;26329;40.388;-3.710;2023-04-07T08:26:47;1.95;;;0.20;;
40629;SDS011;26329;40.388;-3.710;2023-04-07T08:36:48;4.32;;;0.45;;
40629;SDS011;26329;40.388;-3.710;2023-04-07T08:46:50;1.40;;;0.38;;
40629;SDS011;26329;40.388;-3.710;2023-04-07T08:56:56;1.95;;;0.30;;
40629;SDS011;26329;40.388;-3.710;2023-04-07T09:06:59;2.67;;;0.10;;
40629;SDS011;26329;40.388;-3.710;2023-04-07T09:17:01;3.22;;;0.10;;
40629;SDS011;26329;40.388;-3.710;2023-04-07T09:37:20;3.65;;;0.47;;
40629;SDS011;26329;40.388;-3.710;2023-04-07T09:47:26;2.97;;;0.30;;
40629;SDS011;26329;40.388;-3.710;2023-04-07T09:57:28;4.07;;;0.20;;
40629;SDS011;26329;40.388;-3.710;2023-04-07T10:07:30;2.75;;;0.10;;
40629;SDS011;26329;40.388;-3.710;2023-04-07T10:17:32;0.98;;;0.10;;
40629;SDS011;26329;40.388;-3.710;2023-04-07T10:27:37;3.53;;;0.10;;
40629;SDS011;26329;40.388;-3.710;2023-04-07T10:48:14;2.10;;;0.20;;
40629;SDS011;26329;40.388;-3.710;2023-04-07T11:08:34;1.50;;;0.20;;
40629;SDS011;26329;40.388;-3.710;2023-04-07T11:18:36;1.88;;;0.10;;
40629;SDS011;26329;40.388;-3.710;2023-04-07T11:28:45;0.50;;;0.10;;
40629;SDS011;26329;40.388;-3.710;2023-04-07T11:38:47;4.50;;;0.17;;
40629;SDS011;26329;40.388;-3.710;2023-04-07T11:48:48;5.85;;;0.20;;
40629;SDS011;26329;40.388;-3.710;2023-04-07T11:58:50;1.05;;;0.10;;
40629;SDS011;26329;40.388;-3.710;2023-04-07T12:08:53;3.38;;;0.10;;
40629;SDS011;26329;40.388;-3.710;2023-04-07T12:18:55;2.42;;;0.30;;
40629;SDS011;26329;40.388;-3.710;2023-04-07T12:28:57;1.20;;;0.10;;
40629;SDS011;26329;40.388;-3.710;2023-04-07T12:39:04;2.05;;;0.20;;
40629;SDS011;26329;40.388;-3.710;2023-04-07T12:49:06;0.95;;;0.20;;
40629;SDS011;26329;40.388;-3.710;2023-04-07T12:59:07;3.90;;;0.15;;
40629;SDS011;26329;40.388;-3.710;2023-04-07T13:09:09;1.50;;;0.10;;
40629;SDS011;26329;40.388;-3.710;2023-04-07T13:19:10;1.27;;;0.10;;
40629;SDS011;26329;40.388;-3.710;2023-04-07T13:29:12;2.67;;;0.10;;
40629;SDS011;26329;40.388;-3.710;2023-04-07T13:39:13;2.47;;;0.10;;
40629;SDS011;26329;40.388;-3.710;2023-04-07T13:49:15;1.53;;;0.10;;
40629;SDS011;26329;40.388;-3.710;2023-04-07T13:59:16;2.20;;;0.40;;
40629;SDS011;26329;40.388;-3.710;2023-04-07T14:09:17;4.80;;;0.20;;
40629;SDS011;26329;40.388;-3.710;2023-04-07T14:19:19;0.93;;;0.10;;
40629;SDS011;26329;40.388;-3.710;2023-04-07T14:29:24;4.63;;;0.30;;
40629;SDS011;26329;40.388;-3.710;2023-04-07T14:39:26;0.75;;;0.10;;
40629;SDS011;26329;40.388;-3.710;2023-04-07T14:49:27;4.73;;;0.10;;
40629;SDS011;26329;40.388;-3.710;2023-04-07T14:59:29;1.83;;;0.10;;
40629;SDS011;26329;40.388;-3.710;2023-04-07T15:09:30;5.43;;;0.20;;
40629;SDS011;26329;40.388;-3.710;2023-04-07T15:19:32;0.23;;;0.00;;
40629;SDS011;26329;40.388;-3.710;2023-04-07T15:29:33;2.43;;;0.10;;
40629;SDS011;26329;40.388;-3.710;2023-04-07T15:39:34;1.60;;;0.10;;
40629;SDS011;26329;40.388;-3.710;2023-04-07T15:49:36;3.23;;;0.30;;
40629;SDS011;26329;40.388;-3.710;2023-04-07T15:59:38;1.15;;;0.10;;
40629;SDS011;26329;40.388;-3.710;2023-04-07T16:09:39;0.43;;;0.20;;
40629;SDS011;26329;40.388;-3.710;2023-04-07T16:19:41;0.83;;;0.00;;
40629;SDS011;26329;40.388;-3.710;2023-04-07T16:29:42;1.50;;;0.00;;
40629;SDS011;26329;40.388;-3.710;2023-04-07T16:39:43;3.10;;;0.03;;
40629;SDS011;26329;40.388;-3.710;2023-04-07T16:49:45;1.80;;;0.10;;
40629;SDS011;26329;40.388;-3.710;2023-04-07T16:59:46;1.30;;;0.10;;
40629;SDS011;26329;40.388;-3.710;2023-04-07T17:09:48;1.02;;;0.20;;
40629;SDS011;26329;40.388;-3.710;2023-04-07T17:19:49;2.77;;;0.10;;
40629;SDS011;26329;40.388;-3.710;2023-04-07T17:29:51;1.00;;;0.10;;
40629;SDS011;26329;40.388;-3.710;2023-04-07T17:39:52;3.60;;;0.10;;
40629;SDS011;26329;40.388;-3.710;2023-04-07T17:49:55;2.83;;;0.20;;
40629;SDS011;26329;40.388;-3.710;2023-04-07T17:59:56;3.00;;;0.10;;
40629;SDS011;26329;40.388;-3.710;2023-04-07T18:09:57;0.87;;;0.13;;
40629;SDS011;26329;40.388;-3.710;2023-04-07T18:19:59;10.50;;;0.30;;
40629;SDS011;26329;40.388;-3.710;2023-04-07T18:30:01;3.40;;;0.10;;
40629;SDS011;26329;40.388;-3.710;2023-04-07T18:40:03;4.53;;;0.10;;
40629;SDS011;26329;40.388;-3.710;2023-04-07T18:50:05;2.83;;;0.30;;
40629;SDS011;26329;40.388;-3.710;2023-04-07T19:00:07;7.13;;;0.93;;
40629;SDS011;26329;40.388;-3.710;2023-04-07T19:10:09;10.63;;;1.20;;
40629;SDS011;26329;40.388;-3.710;2023-04-07T19:20:11;9.70;;;1.42;;
40629;SDS011;26329;40.388;-3.710;2023-04-07T19:30:12;10.15;;;1.80;;
40629;SDS011;26329;40.388;-3.710;2023-04-07T19:40:15;1.70;;;1.15;;
40629;SDS011;26329;40.388;-3.710;2023-04-07T19:50:17;7.00;;;1.80;;
40629;SDS011;26329;40.388;-3.710;2023-04-07T20:00:18;6.28;;;1.30;;
40629;SDS011;26329;40.388;-3.710;2023-04-07T20:10:19;17.55;;;4.20;;
40629;SDS011;26329;40.388;-3.710;2023-04-07T20:20:21;8.35;;;2.10;;
40629;SDS011;26329;40.388;-3.710;2023-04-07T20:30:23;7.57;;;2.17;;
40629;SDS011;26329;40.388;-3.710;2023-04-07T20:40:25;5.50;;;1.30;;
40629;SDS011;26329;40.388;-3.710;2023-04-07T20:50:27;15.07;;;3.45;;
40629;SDS011;26329;40.388;-3.710;2023-04-07T21:00:28;7.75;;;2.63;;
40629;SDS011;26329;40.388;-3.710;2023-04-07T21:10:30;7.45;;;2.55;;
40629;SDS011;26329;40.388;-3.710;2023-04-07T21:20:31;5.68;;;1.02;;
40629;SDS011;26329;40.388;-3.710;2023-04-07T21:30:33;4.90;;;0.70;;
40629;SDS011;26329;40.388;-3.710;2023-04-07T21:40:34;9.57;;;1.00;;
40629;SDS011;26329;40.388;-3.710;2023-04-07T21:50:35;7.97;;;1.55;;
40629;SDS011;26329;40.388;-3.710;2023-04-07T22:00:37;8.10;;;1.98;;
40629;SDS011;26329;40.388;-3.710;2023-04-07T22:10:39;8.25;;;1.77;;
40629;SDS011;26329;40.388;-3.710;2023-04-07T22:20:40;5.03;;;1.80;;
40629;SDS011;26329;40.388;-3.710;2023-04-07T22:30:41;5.88;;;1.00;;
40629;SDS011;26329;40.388;-3.710;2023-04-07T22:40:43;3.38;;;0.85;;
40629;SDS011;26329;40.388;-3.710;2023-04-07T22:50:45;6.82;;;1.08;;
40629;SDS011;26329;40.388;-3.710;2023-04-07T23:00:46;8.43;;;1.20;;
40629;SDS011;26329;40.388;-3.710;2023-04-07T23:10:47;8.18;;;0.55;;
40629;SDS011;26329;40.388;-3.710;2023-04-07T23:20:49;3.05;;;0.93;;
40629;SDS011;26329;40.388;-3.710;2023-04-07T23:30:53;3.55;;;1.35;;
40629;SDS011;26329;40.388;-3.710;2023-04-07T23:40:55;4.07;;;0.73;;
40629;SDS011;26329;40.388;-3.710;2023-04-07T23:50:56;4.63;;;1.55;;
